createdAt,value
2018-10-16T00:02:24.058Z,52.70
2018-10-16T00:04:52.232Z,53.50
2018-10-16T00:07:20.424Z,56.00
2018-10-16T00:09:48.616Z,57.00
2018-10-16T00:12:16.857Z,57.80
2018-10-16T00:14:45.030Z,55.70
2018-10-16T00:17:13.257Z,57.20
2018-10-16T00:19:41.420Z,59.80
2018-10-16T00:22:09.635Z,59.00
2018-10-16T00:24:37.816Z,59.10
2018-10-16T00:27:06.010Z,62.20
2018-10-16T00:29:34.254Z,65.40
2018-10-16T00:32:02.429Z,65.30
2018-10-16T00:34:30.632Z,64.80
2018-10-16T00:36:58.815Z,65.20
2018-10-16T00:39:27.053Z,64.80
2018-10-16T00:41:56.617Z,66.10
2018-10-16T00:44:24.834Z,63.00
2018-10-16T00:46:53.016Z,68.10
2018-10-16T00:49:21.249Z,69.30
2018-10-16T00:51:49.436Z,70.30
2018-10-16T00:54:26.019Z,68.10
2018-10-16T00:56:54.200Z,64.10
2018-10-16T00:59:22.382Z,67.00
2018-10-16T01:01:50.573Z,67.90
2018-10-16T01:04:18.772Z,68.80
2018-10-16T01:06:46.915Z,69.40
2018-10-16T01:09:15.114Z,69.80
2018-10-16T01:11:43.311Z,72.90
2018-10-16T01:14:11.514Z,74.10
2018-10-16T01:16:39.676Z,74.50
2018-10-16T01:19:07.877Z,73.40
2018-10-16T01:21:36.060Z,73.60
2018-10-16T01:24:04.572Z,73.30
2018-10-16T01:26:32.722Z,73.80
2018-10-16T01:29:00.921Z,76.90
2018-10-16T01:31:29.105Z,76.10
2018-10-16T01:33:57.308Z,76.40
2018-10-16T01:36:25.514Z,76.70
2018-10-16T01:38:53.696Z,69.70
2018-10-16T01:41:21.895Z,71.90
2018-10-16T01:43:50.096Z,75.00
2018-10-16T01:46:18.312Z,77.70
2018-10-16T01:48:46.566Z,75.30
2018-10-16T01:51:14.780Z,75.90
2018-10-16T01:53:42.966Z,76.20
2018-10-16T01:56:11.165Z,76.80
2018-10-16T01:58:39.372Z,74.10
2018-10-16T02:01:07.599Z,76.50
2018-10-16T02:03:35.749Z,78.30
2018-10-16T02:06:04.006Z,79.30
2018-10-16T02:08:32.170Z,79.40
2018-10-16T02:11:00.344Z,81.40
2018-10-16T02:13:28.546Z,80.80
2018-10-16T02:15:56.772Z,80.20
2018-10-16T02:18:25.036Z,81.80
2018-10-16T02:20:53.231Z,81.20
2018-10-16T02:23:21.407Z,86.40
2018-10-16T02:25:49.606Z,83.90
2018-10-16T02:28:17.838Z,83.70
2018-10-16T02:30:46.034Z,86.30
2018-10-16T02:33:14.211Z,86.40
2018-10-16T02:35:42.460Z,84.20
2018-10-16T02:38:10.667Z,89.30
2018-10-16T02:40:38.829Z,86.70
2018-10-16T02:43:06.987Z,86.30
2018-10-16T02:45:35.164Z,88.40
2018-10-16T02:48:03.341Z,88.40
2018-10-16T02:50:31.496Z,88.70
2018-10-16T02:52:59.850Z,90.10
2018-10-16T02:55:28.001Z,90.30
2018-10-16T02:57:56.192Z,86.30
2018-10-16T03:00:24.360Z,87.00
2018-10-16T03:02:52.527Z,86.40
2018-10-16T03:05:20.698Z,89.70
2018-10-16T03:07:48.889Z,90.80
2018-10-16T03:10:17.069Z,90.10
2018-10-16T03:12:45.255Z,90.90
2018-10-16T03:15:13.975Z,89.80
2018-10-16T03:17:42.204Z,90.10
2018-10-16T03:20:11.273Z,90.90
2018-10-16T03:22:40.001Z,91.10
2018-10-16T03:25:10.025Z,92.80
2018-10-16T03:27:38.555Z,93.30
2018-10-16T03:30:08.230Z,94.20
2018-10-16T03:32:36.625Z,93.90
2018-10-16T03:35:05.656Z,93.30
2018-10-16T03:37:33.824Z,91.40
2018-10-16T03:40:02.009Z,91.70
2018-10-16T03:42:30.173Z,91.90
2018-10-16T03:44:58.422Z,93.50
2018-10-16T03:47:26.675Z,92.70
2018-10-16T03:49:54.823Z,93.00
2018-10-16T03:52:22.998Z,92.10
2018-10-16T03:54:51.149Z,89.80
2018-10-16T03:57:19.413Z,90.30
2018-10-16T03:59:47.581Z,88.50
2018-10-16T04:02:15.777Z,90.80
2018-10-16T04:04:43.942Z,89.80
2018-10-16T04:07:12.183Z,92.10
2018-10-16T04:09:40.363Z,92.00
2018-10-16T04:12:08.975Z,91.80
2018-10-16T04:14:37.132Z,93.20
2018-10-16T04:17:05.430Z,91.70
2018-10-16T04:19:33.636Z,97.60
2018-10-16T04:22:01.822Z,97.20
2018-10-16T04:24:29.997Z,95.90
2018-10-16T04:26:58.179Z,96.60
2018-10-16T04:29:26.353Z,96.80
2018-10-16T04:31:54.528Z,98.00
2018-10-16T04:34:22.830Z,99.90
2018-10-16T04:36:51.052Z,98.70
2018-10-16T04:39:19.250Z,98.10
2018-10-16T04:41:47.556Z,97.70
2018-10-16T04:44:15.631Z,99.10
2018-10-16T04:46:43.811Z,97.50
2018-10-16T04:49:12.002Z,96.30
2018-10-16T04:51:40.960Z,96.80
2018-10-16T04:54:09.245Z,94.70
2018-10-16T04:56:37.448Z,97.20
2018-10-16T04:59:05.612Z,97.50
2018-10-16T05:01:33.817Z,97.20
2018-10-16T05:04:02.115Z,96.00
2018-10-16T05:06:30.237Z,98.30
2018-10-16T05:08:58.489Z,98.20
2018-10-16T05:11:26.663Z,96.30
2018-10-16T05:13:54.912Z,99.30
2018-10-16T05:16:23.100Z,96.80
2018-10-16T05:18:51.376Z,99.30
2018-10-16T05:21:19.539Z,99.20
2018-10-16T05:23:47.734Z,99.40
2018-10-16T05:26:16.027Z,99.90
2018-10-16T05:28:44.215Z,99.90
2018-10-16T05:31:12.476Z,99.90
2018-10-16T05:33:40.601Z,99.90
2018-10-16T05:36:08.884Z,99.90
2018-10-16T05:38:37.044Z,99.90
2018-10-16T05:41:05.544Z,99.90
2018-10-16T05:43:33.704Z,99.90
2018-10-16T05:46:01.940Z,99.90
2018-10-16T05:48:30.678Z,99.90
2018-10-16T05:50:58.911Z,99.90
2018-10-16T05:53:27.096Z,99.90
2018-10-16T05:56:03.971Z,99.90
2018-10-16T05:58:32.207Z,99.90
2018-10-16T06:03:40.677Z,96.70
2018-10-16T06:06:09.126Z,98.70
2018-10-16T06:08:37.822Z,97.80
2018-10-16T06:11:06.107Z,98.20
2018-10-16T06:13:34.323Z,96.90
2018-10-16T06:16:02.575Z,96.00
2018-10-16T06:18:30.907Z,97.90
2018-10-16T06:20:59.181Z,97.20
2018-10-16T06:23:27.386Z,97.00
2018-10-16T06:25:55.632Z,96.90
2018-10-16T06:28:25.998Z,96.40
2018-10-16T06:30:54.174Z,98.40
2018-10-16T06:33:24.198Z,99.70
2018-10-16T06:35:52.282Z,99.50
2018-10-16T06:38:20.483Z,99.20
2018-10-16T06:43:16.880Z,99.10
2018-10-16T06:45:45.510Z,96.20
2018-10-16T06:48:14.028Z,95.40
2018-10-16T06:50:42.339Z,94.90
2018-10-16T06:53:10.600Z,94.10
2018-10-16T06:55:38.787Z,94.30
2018-10-16T06:58:07.300Z,94.50
2018-10-16T07:00:35.714Z,93.70
2018-10-16T07:03:03.925Z,92.90
2018-10-16T07:05:32.120Z,91.40
2018-10-16T07:08:00.325Z,91.60
2018-10-16T07:10:28.744Z,91.00
2018-10-16T07:12:56.912Z,90.70
2018-10-16T07:15:25.100Z,89.80
2018-10-16T07:17:53.485Z,85.80
2018-10-16T07:20:21.740Z,83.90
2018-10-16T07:22:50.008Z,87.10
2018-10-16T07:27:46.908Z,81.70
2018-10-16T07:30:16.783Z,84.10
2018-10-16T07:32:44.858Z,83.00
2018-10-16T07:35:13.034Z,86.70
2018-10-16T07:37:42.373Z,89.70
2018-10-16T07:40:11.527Z,86.50
2018-10-16T07:42:40.172Z,93.30
2018-10-16T07:45:08.676Z,91.20
2018-10-16T07:47:37.340Z,91.60
2018-10-16T07:50:08.401Z,88.70
2018-10-16T07:55:18.687Z,84.70
2018-10-16T07:57:46.897Z,82.70
2018-10-16T08:00:15.252Z,85.60
2018-10-16T08:02:44.045Z,84.00
2018-10-16T08:05:12.730Z,85.40
2018-10-16T08:07:41.442Z,89.30
2018-10-16T08:10:11.153Z,88.50
2018-10-16T08:12:39.402Z,88.40
2018-10-16T08:15:08.249Z,83.40
2018-10-16T08:17:36.444Z,81.10
2018-10-16T08:20:04.771Z,69.80
2018-10-16T08:22:32.956Z,72.20
2018-10-16T08:25:01.437Z,75.60
2018-10-16T08:27:29.623Z,75.00
2018-10-16T08:29:57.893Z,75.70
2018-10-16T08:32:26.008Z,68.80
2018-10-16T08:34:54.396Z,71.60
2018-10-16T08:38:32.403Z,70.10
2018-10-16T08:41:00.591Z,68.40
2018-10-16T08:43:43.205Z,62.90
2018-10-16T08:46:22.820Z,62.90
2018-10-16T08:49:03.131Z,65.30
2018-10-16T08:51:46.144Z,67.00
2018-10-16T08:54:14.292Z,67.50
2018-10-16T08:56:42.460Z,60.00
2018-10-16T08:59:10.684Z,57.70
2018-10-16T09:01:38.887Z,56.30
2018-10-16T09:04:07.188Z,54.60
2018-10-16T09:06:35.448Z,41.90
2018-10-16T09:09:05.086Z,42.60
2018-10-16T09:11:33.371Z,41.50
2018-10-16T09:14:01.835Z,39.60
2018-10-16T09:16:30.012Z,37.60
2018-10-16T09:18:58.260Z,40.10
2018-10-16T09:21:26.613Z,39.90
2018-10-16T09:23:54.821Z,35.60
2018-10-16T09:26:23.102Z,35.80
2018-10-16T09:28:51.341Z,33.90
2018-10-16T09:31:19.752Z,30.40
2018-10-16T09:33:47.919Z,29.30
2018-10-16T09:36:16.396Z,21.00
2018-10-16T09:38:44.614Z,19.90
2018-10-16T09:41:12.886Z,19.50
2018-10-16T09:43:41.111Z,18.70
2018-10-16T09:46:09.454Z,20.00
2018-10-16T09:48:37.660Z,17.40
2018-10-16T09:51:05.864Z,14.80
2018-10-16T09:53:34.034Z,13.00
2018-10-16T09:56:02.238Z,14.80
2018-10-16T09:58:30.479Z,12.80
2018-10-16T10:01:04.081Z,4.20
2018-10-16T10:03:32.260Z,4.40
2018-10-16T10:06:00.520Z,2.80
2018-10-16T10:08:28.687Z,3.20
2018-10-16T10:10:56.904Z,1.00
2018-10-16T10:13:25.171Z,1.00
2018-10-16T10:15:53.375Z,1.00
2018-10-16T10:18:21.600Z,1.00
2018-10-16T10:20:49.979Z,1.80
2018-10-16T10:23:18.229Z,1.00
2018-10-16T10:25:46.389Z,1.00
2018-10-16T10:28:14.794Z,1.00
2018-10-16T10:30:43.010Z,1.00
2018-10-16T10:33:11.248Z,1.00
2018-10-16T10:35:39.513Z,1.00
2018-10-16T10:38:07.682Z,1.00
2018-10-16T10:40:35.833Z,1.00
2018-10-16T10:43:04.260Z,1.00
2018-10-16T10:45:32.433Z,1.00
2018-10-16T10:48:00.607Z,1.00
2018-10-16T10:50:28.912Z,1.00
2018-10-16T10:52:56.965Z,1.00
2018-10-16T10:55:25.143Z,1.00
2018-10-16T10:57:53.661Z,1.00
2018-10-16T11:00:21.829Z,1.00
2018-10-16T11:02:50.018Z,1.00
2018-10-16T11:05:18.268Z,1.00
2018-10-16T11:07:46.613Z,1.00
2018-10-16T11:10:15.019Z,1.00
2018-10-16T11:12:44.023Z,1.00
2018-10-16T11:15:12.334Z,1.00
2018-10-16T11:17:40.927Z,1.00
2018-10-16T11:20:11.483Z,1.00
2018-10-16T11:22:39.676Z,1.00
2018-10-16T11:25:08.910Z,1.00
2018-10-16T11:27:37.149Z,1.00
2018-10-16T11:30:07.990Z,1.00
2018-10-16T11:32:36.148Z,1.00
2018-10-16T11:35:04.334Z,1.00
2018-10-16T11:37:32.558Z,1.00
2018-10-16T11:40:00.725Z,1.00
2018-10-16T11:42:28.931Z,1.00
2018-10-16T11:44:57.125Z,1.00
2018-10-16T11:47:25.250Z,1.00
2018-10-16T11:49:53.424Z,1.00
2018-10-16T11:52:21.645Z,1.00
2018-10-16T11:54:49.756Z,1.00
2018-10-16T11:57:17.909Z,1.00
2018-10-16T11:59:46.080Z,1.00
2018-10-16T12:02:14.434Z,1.00
2018-10-16T12:04:42.608Z,1.00
2018-10-16T12:07:10.904Z,1.00
2018-10-16T12:09:39.021Z,1.00
2018-10-16T12:12:07.218Z,1.00
2018-10-16T12:14:35.397Z,1.00
2018-10-16T12:17:10.955Z,1.00
2018-10-16T12:19:42.540Z,1.00
2018-10-16T12:22:10.875Z,1.00
2018-10-16T12:24:39.057Z,1.00
2018-10-16T12:27:07.336Z,1.00
2018-10-16T12:29:35.504Z,1.00
2018-10-16T12:32:03.855Z,1.00
2018-10-16T12:34:32.056Z,1.00
2018-10-16T12:37:00.312Z,1.00
2018-10-16T12:39:28.473Z,1.00
2018-10-16T12:41:56.679Z,1.00
2018-10-16T12:44:24.832Z,1.00
2018-10-16T12:46:53.040Z,1.00
2018-10-16T12:49:21.228Z,1.00
2018-10-16T12:51:49.443Z,1.00
2018-10-16T12:54:17.672Z,1.00
2018-10-16T12:56:45.906Z,1.00
2018-10-16T12:59:14.172Z,1.00
2018-10-16T13:01:42.276Z,1.00
2018-10-16T13:04:10.527Z,1.00
2018-10-16T13:06:38.761Z,1.00
2018-10-16T13:09:08.756Z,1.00
2018-10-16T13:11:37.524Z,1.00
2018-10-16T13:14:05.739Z,1.00
2018-10-16T13:16:33.915Z,1.00
2018-10-16T13:19:02.101Z,1.00
2018-10-16T13:21:30.415Z,1.00
2018-10-16T13:23:58.660Z,1.00
2018-10-16T13:26:26.855Z,1.00
2018-10-16T13:28:55.053Z,1.00
2018-10-16T13:31:23.210Z,1.00
2018-10-16T13:33:51.429Z,1.00
2018-10-16T13:36:19.706Z,1.00
2018-10-16T13:38:47.927Z,1.00
2018-10-16T13:41:16.132Z,1.00
2018-10-16T13:43:44.283Z,1.00
2018-10-16T13:46:12.574Z,1.00
2018-10-16T13:48:40.977Z,1.00
2018-10-16T13:51:09.210Z,1.00
2018-10-16T13:53:37.440Z,1.00
2018-10-16T13:56:05.950Z,1.00
2018-10-16T13:58:34.843Z,1.00
2018-10-16T14:01:03.244Z,1.00
2018-10-16T14:03:31.462Z,1.00
2018-10-16T14:05:59.635Z,1.00
2018-10-16T14:08:27.851Z,1.00
2018-10-16T14:10:56.116Z,1.00
2018-10-16T14:13:24.291Z,1.00
2018-10-16T14:15:52.583Z,1.00
2018-10-16T14:18:20.712Z,1.00
2018-10-16T14:20:48.912Z,1.00
2018-10-16T14:23:17.080Z,1.00
2018-10-16T14:25:45.342Z,1.00
2018-10-16T14:28:13.772Z,1.00
2018-10-16T14:30:41.969Z,1.00
2018-10-16T14:33:10.937Z,1.00
2018-10-16T14:35:39.257Z,1.00
2018-10-16T14:38:07.464Z,1.00
2018-10-16T14:40:35.719Z,1.00
2018-10-16T14:43:03.812Z,1.00
2018-10-16T14:45:32.001Z,1.00
2018-10-16T14:48:00.294Z,1.00
2018-10-16T14:50:28.330Z,1.00
2018-10-16T14:52:56.516Z,1.00
2018-10-16T14:55:24.755Z,1.00
2018-10-16T14:57:52.934Z,1.00
2018-10-16T15:00:21.091Z,1.00
2018-10-16T15:02:49.293Z,1.00
2018-10-16T15:05:17.528Z,1.00
2018-10-16T15:07:45.672Z,1.00
2018-10-16T15:10:13.941Z,1.00
2018-10-16T15:12:42.097Z,1.00
2018-10-16T15:15:10.413Z,1.00
2018-10-16T15:17:38.624Z,1.00
2018-10-16T15:20:08.335Z,1.00
2018-10-16T15:22:36.482Z,1.00
2018-10-16T15:25:05.751Z,1.00
2018-10-16T15:27:33.927Z,1.00
2018-10-16T15:30:02.058Z,1.00
2018-10-16T15:32:30.217Z,1.00
2018-10-16T15:34:58.385Z,1.00
2018-10-16T15:37:26.540Z,1.00
2018-10-16T15:39:54.752Z,1.00
2018-10-16T15:42:23.254Z,1.00
2018-10-16T15:44:51.428Z,1.00
2018-10-16T15:47:19.576Z,1.00
2018-10-16T15:49:47.735Z,1.00
2018-10-16T15:52:16.130Z,1.00
2018-10-16T15:54:44.280Z,1.00
2018-10-16T15:57:12.460Z,1.00
2018-10-16T15:59:40.843Z,1.00
2018-10-16T16:02:09.098Z,1.00
2018-10-16T16:04:37.218Z,1.00
2018-10-16T16:07:05.367Z,1.00
2018-10-16T16:09:33.532Z,1.00
2018-10-16T16:12:01.783Z,1.00
2018-10-16T16:14:29.853Z,1.00
2018-10-16T16:16:58.275Z,1.00
2018-10-16T16:19:26.678Z,1.00
2018-10-16T16:21:54.864Z,1.00
2018-10-16T16:24:23.032Z,1.00
2018-10-16T16:26:51.251Z,1.00
2018-10-16T16:29:19.431Z,1.00
2018-10-16T16:31:47.676Z,1.00
2018-10-16T16:34:16.095Z,1.00
2018-10-16T16:36:44.424Z,1.00
2018-10-16T16:39:13.856Z,1.00
2018-10-16T16:41:42.325Z,1.00
2018-10-16T16:44:10.596Z,1.00
2018-10-16T16:46:39.536Z,1.00
2018-10-16T16:49:07.748Z,1.00
2018-10-16T16:51:35.936Z,1.00
2018-10-16T16:54:04.139Z,1.00
2018-10-16T16:56:32.343Z,1.00
2018-10-16T16:59:00.542Z,1.00
2018-10-16T17:01:28.665Z,1.00
2018-10-16T17:03:56.911Z,1.00
2018-10-16T17:06:25.116Z,1.00
2018-10-16T17:08:53.287Z,1.00
2018-10-16T17:11:21.474Z,1.00
2018-10-16T17:13:49.603Z,1.00
2018-10-16T17:16:17.759Z,1.00
2018-10-16T17:18:46.008Z,1.00
2018-10-16T17:21:14.160Z,1.00
2018-10-16T17:23:42.434Z,1.00
2018-10-16T17:26:10.938Z,1.00
2018-10-16T17:28:38.837Z,1.00
2018-10-16T17:31:07.054Z,1.00
2018-10-16T17:33:35.240Z,1.00
2018-10-16T17:36:03.592Z,1.00
2018-10-16T17:38:32.043Z,1.00
2018-10-16T17:41:00.196Z,1.00
2018-10-16T17:43:28.356Z,1.00
2018-10-16T17:45:56.554Z,1.00
2018-10-16T17:48:24.976Z,1.00
2018-10-16T17:50:53.144Z,1.00
2018-10-16T17:53:21.322Z,1.00
2018-10-16T17:55:49.488Z,1.00
2018-10-16T17:58:17.638Z,1.00
2018-10-16T18:00:45.836Z,1.00
2018-10-16T18:03:14.055Z,1.00
2018-10-16T18:05:42.281Z,1.00
2018-10-16T18:08:10.448Z,1.00
2018-10-16T18:10:38.623Z,1.00
2018-10-16T18:13:06.778Z,1.00
2018-10-16T18:15:34.956Z,1.00
2018-10-16T18:18:03.133Z,1.00
2018-10-16T18:20:31.374Z,1.00
2018-10-16T18:22:59.564Z,1.00
2018-10-16T18:25:27.735Z,1.00
2018-10-16T18:27:55.955Z,1.00
2018-10-16T18:30:24.105Z,1.00
2018-10-16T18:32:52.266Z,1.00
2018-10-16T18:35:20.480Z,1.00
2018-10-16T18:37:48.645Z,1.00
2018-10-16T18:40:16.959Z,1.00
2018-10-16T18:42:45.146Z,1.00
2018-10-16T18:45:14.290Z,1.00
2018-10-16T18:47:42.571Z,1.00
2018-10-16T18:50:12.015Z,1.00
2018-10-16T18:52:40.232Z,1.00
2018-10-16T18:55:09.853Z,1.00
2018-10-16T18:57:38.568Z,1.00
2018-10-16T19:00:12.283Z,1.00
2018-10-16T19:02:40.601Z,1.00
2018-10-16T19:05:09.562Z,1.00
2018-10-16T19:07:38.082Z,1.00
2018-10-16T19:10:06.695Z,1.00
2018-10-16T19:12:35.311Z,1.00
2018-10-16T19:15:03.538Z,1.00
2018-10-16T19:17:31.674Z,1.00
2018-10-16T19:20:00.174Z,1.00
2018-10-16T19:22:28.276Z,1.00
2018-10-16T19:24:56.428Z,1.00
2018-10-16T19:27:24.618Z,1.00
2018-10-16T19:29:52.763Z,1.00
2018-10-16T19:32:20.955Z,1.00
2018-10-16T19:34:49.151Z,1.00
2018-10-16T19:37:17.359Z,1.00
2018-10-16T19:39:45.550Z,1.00
2018-10-16T19:42:13.775Z,1.00
2018-10-16T19:44:41.927Z,1.00
2018-10-16T19:47:10.121Z,1.00
2018-10-16T19:49:38.308Z,1.00
2018-10-16T19:52:06.452Z,1.00
2018-10-16T19:54:34.665Z,1.00
2018-10-16T19:57:02.984Z,1.00
2018-10-16T19:59:31.129Z,1.00
2018-10-16T20:01:59.340Z,1.00
2018-10-16T20:04:27.500Z,1.00
2018-10-16T20:06:55.669Z,1.00
2018-10-16T20:09:23.843Z,1.00
2018-10-16T20:11:52.001Z,1.00
2018-10-16T20:14:20.234Z,1.00
2018-10-16T20:16:48.367Z,1.00
2018-10-16T20:19:16.521Z,1.00
2018-10-16T20:21:45.479Z,1.00
2018-10-16T20:24:13.788Z,1.00
2018-10-16T20:26:42.675Z,1.00
2018-10-16T20:29:10.812Z,1.00
2018-10-16T20:31:38.965Z,1.00
2018-10-16T20:34:07.122Z,1.00
2018-10-16T20:36:35.383Z,1.00
2018-10-16T20:39:05.237Z,1.00
2018-10-16T20:41:33.408Z,1.00
2018-10-16T20:44:01.600Z,1.00
2018-10-16T20:46:30.596Z,1.00
2018-10-16T20:48:58.827Z,1.10
2018-10-16T20:51:26.969Z,2.10
2018-10-16T20:53:55.163Z,1.70
2018-10-16T20:56:23.339Z,1.00
2018-10-16T20:58:51.477Z,3.00
2018-10-16T21:01:19.623Z,3.40
2018-10-16T21:03:47.779Z,3.10
2018-10-16T21:06:16.221Z,3.60
2018-10-16T21:08:44.138Z,2.90
2018-10-16T21:11:12.292Z,4.60
2018-10-16T21:13:40.440Z,6.60
2018-10-16T21:16:08.596Z,7.60
2018-10-16T21:18:36.759Z,8.90
2018-10-16T21:23:32.913Z,10.30
2018-10-16T21:26:01.193Z,11.40
2018-10-16T21:28:29.591Z,13.20
2018-10-16T21:30:57.756Z,15.00
2018-10-16T21:33:25.939Z,13.50
2018-10-16T21:35:54.314Z,13.00
2018-10-16T21:38:22.469Z,13.10
2018-10-16T21:40:50.707Z,16.10
2018-10-16T21:43:18.833Z,17.10
2018-10-16T21:45:46.994Z,16.00
2018-10-16T21:48:15.158Z,16.80
2018-10-16T21:50:43.330Z,18.20
2018-10-16T21:53:11.597Z,19.70
2018-10-16T21:55:39.757Z,19.50
2018-10-16T21:58:07.971Z,19.60
2018-10-16T22:00:41.619Z,19.60
2018-10-16T22:03:09.768Z,18.70
2018-10-16T22:05:37.953Z,20.50
2018-10-16T22:08:06.193Z,20.90
2018-10-16T22:10:34.363Z,23.80
2018-10-16T22:13:06.792Z,25.20
2018-10-16T22:15:34.943Z,25.50
2018-10-16T22:18:03.137Z,25.80
2018-10-16T22:20:31.381Z,26.40
2018-10-16T22:22:59.611Z,27.10
2018-10-16T22:25:27.726Z,27.80
2018-10-16T22:27:55.974Z,29.10
2018-10-16T22:30:24.117Z,30.70
2018-10-16T22:32:52.303Z,29.90
2018-10-16T22:35:20.440Z,31.70
2018-10-16T22:37:48.687Z,31.10
2018-10-16T22:40:16.843Z,31.50
2018-10-16T22:42:45.072Z,31.80
2018-10-16T22:45:13.259Z,32.10
2018-10-16T22:47:41.436Z,31.00
2018-10-16T22:50:10.863Z,32.50
2018-10-16T22:52:39.052Z,33.50
2018-10-16T22:55:07.909Z,33.70
2018-10-16T22:57:36.025Z,35.00
2018-10-16T23:00:05.321Z,35.80
2018-10-16T23:02:33.533Z,35.50
2018-10-16T23:05:01.747Z,37.90
2018-10-16T23:07:29.891Z,40.50
2018-10-16T23:09:58.064Z,40.70
2018-10-16T23:12:26.228Z,40.40
2018-10-16T23:14:54.395Z,42.20
2018-10-16T23:17:22.599Z,40.50
2018-10-16T23:19:50.771Z,40.70
2018-10-16T23:22:18.923Z,42.20
2018-10-16T23:24:47.083Z,43.00
2018-10-16T23:27:15.253Z,44.90
2018-10-16T23:29:43.424Z,48.30
2018-10-16T23:32:11.657Z,49.20
2018-10-16T23:34:39.841Z,51.60
2018-10-16T23:37:08.092Z,50.60
2018-10-16T23:39:36.268Z,49.90
2018-10-16T23:42:04.507Z,51.30
2018-10-16T23:44:32.697Z,52.50
2018-10-16T23:47:00.891Z,52.10
2018-10-16T23:49:29.031Z,52.50
2018-10-16T23:51:57.241Z,57.70
2018-10-16T23:54:26.139Z,56.50
2018-10-16T23:56:54.316Z,57.80
2018-10-16T23:59:22.486Z,58.70
